Time;durP1;ratioP1;P1;durP2;ratioP2;P2;SDS_P1;SDS_P2;PMS_P1;PMS_P2;Temp;Humidity;BMP_temperature;BMP_pressure;BME280_temperature;BME280_humidity;BME280_pressure;Samples;Min_cycle;Max_cycle;Signal;HPM_P1;HPM_P2
2021/01/09 00:00:59;;;;;;;;;;;;;;;2.00;64.41;100044.11;118564;1149;105359;-70
2021/01/09 00:03:24;;;;;;;;;;;;;;;2.02;64.87;100044.00;118479;1150;104463;-70
2021/01/09 00:05:51;;;;;;;;;;;;;;;1.99;65.60;100037.17;118567;1150;105096;-70
2021/01/09 00:08:17;;;;;;;;;;;;;;;1.97;65.26;100028.54;118430;1150;105065;-70
2021/01/09 00:10:42;;;;;;;;;;;;;;;2.03;64.22;100025.48;118468;1150;104463;-70
2021/01/09 00:13:08;;;;;;;;;;;;;;;2.01;64.35;100027.38;118515;1149;104585;-70
2021/01/09 00:15:33;;;;;;;;;;;;;;;2.01;65.19;100021.28;118422;1149;104529;-70
2021/01/09 00:17:58;;;;;;;;;;;;;;;2.03;64.35;100028.13;118516;1150;105150;-71
2021/01/09 00:20:24;;;;;;;;;;;;;;;2.03;64.62;100022.86;118447;1150;104466;-71
2021/01/09 00:22:49;;;;;;;;;;;;;;;2.00;65.68;100028.31;118483;1149;104508;-70
2021/01/09 00:25:16;;;;;;;;;;;;;;;1.96;64.74;100032.97;118441;1150;105100;-70
2021/01/09 00:27:42;;;;;;;;;;;;;;;1.94;65.03;100026.97;118497;1150;104481;-70
2021/01/09 00:30:07;;;;;;;;;;;;;;;1.94;64.99;100032.23;118489;1150;104844;-70
2021/01/09 00:32:33;;;;;;;;;;;;;;;1.90;64.82;100035.98;118388;1150;104647;-70
2021/01/09 00:34:59;;;;;;;;;;;;;;;1.90;64.45;100035.98;118381;1149;105028;-71
2021/01/09 00:37:25;;;;;;;;;;;;;;;1.89;65.37;100039.58;118492;1150;104507;-70
2021/01/09 00:39:50;;;;;;;;;;;;;;;1.89;64.78;100038.75;118445;1150;104470;-70
2021/01/09 00:42:16;;;;;;;;;;;;;;;1.90;65.13;100043.87;118470;1150;105318;-70
2021/01/09 00:44:41;;;;;;;;;;;;;;;1.90;64.80;100049.14;118488;1151;104952;-70
2021/01/09 00:47:06;;;;;;;;;;;;;;;1.90;65.36;100043.05;118383;1150;104505;-70
2021/01/09 00:49:32;;;;;;;;;;;;;;;1.93;65.65;100048.12;118488;1150;104467;-70
2021/01/09 00:51:57;;;;;;;;;;;;;;;1.92;64.55;100041.98;118406;1149;105068;-71
2021/01/09 00:54:23;;;;;;;;;;;;;;;1.91;64.92;100048.21;118508;1149;105329;-70
2021/01/09 00:56:53;;;;;;;615.90;174.40;;;;;;;1.91;64.76;100042.95;118408;1149;104709;-70
2021/01/09 00:59:20;;;;;;;613.50;178.00;;;;;;;1.93;64.84;100048.12;118494;1149;104610;-71
2021/01/09 01:01:45;;;;;;;;;;;;;;;1.89;65.81;100042.22;118439;1149;104506;-71
2021/01/09 01:04:11;;;;;;;;;;;;;;;1.89;64.47;100046.64;118468;1150;105120;-70
2021/01/09 01:06:36;;;;;;;;;;;;;;;1.89;65.50;100042.22;118392;1150;104729;-70
2021/01/09 01:09:02;;;;;;;616.90;177.90;;;;;;;1.91;65.33;100053.47;118382;1150;105221;-70
2021/01/09 01:11:28;;;;;;;;;;;;;;;1.93;64.19;100046.31;118474;1150;104487;-70
2021/01/09 01:13:56;;;;;;;612.00;173.60;;;;;;;1.93;65.60;100042.86;118450;1150;104483;-70
2021/01/09 01:16:22;;;;;;;;;;;;;;;1.94;64.57;100045.39;118432;1150;104731;-70
2021/01/09 01:18:48;;;;;;;;;;;;;;;1.94;64.18;100047.16;118440;1150;105009;-71
2021/01/09 01:21:13;;;;;;;;;;;;;;;1.92;65.49;100055.14;118481;1150;104502;-69
2021/01/09 01:23:39;;;;;;;;;;;;;;;1.91;64.66;100042.95;118414;1150;104487;-70
2021/01/09 01:26:10;;;;;;;607.73;162.97;;;;;;;1.93;65.44;100043.69;118466;1150;104651;-71
2021/01/09 01:28:36;;;;;;;;;;;;;;;1.93;65.25;100051.58;118424;1149;105264;-70
2021/01/09 01:31:02;;;;;;;;;;;;;;;1.92;64.17;100047.25;118422;1149;104499;-70
2021/01/09 01:33:27;;;;;;;;;;;;;;;1.93;65.93;100053.38;118465;1150;105159;-70
2021/01/09 01:35:53;;;;;;;;;;;;;;;1.93;65.45;100037.59;118435;1150;104941;-69
2021/01/09 01:38:18;;;;;;;;;;;;;;;1.93;64.96;100041.05;118492;1150;105065;-70
2021/01/09 01:40:44;;;;;;;;;;;;;;;1.97;65.01;100041.70;118482;1150;104956;-70
2021/01/09 01:43:13;;;;;;;;;;;;;;;2.01;65.02;100037.91;118401;1150;104460;-69
2021/01/09 01:45:40;;;;;;;581.00;143.20;;;;;;;2.04;65.67;100039.48;118583;1150;104585;-70
2021/01/09 01:48:07;;;;;;;613.80;175.25;;;;;;;2.05;64.77;100041.18;118475;1150;104598;-70
2021/01/09 01:50:33;;;;;;;591.67;159.50;;;;;;;2.03;65.62;100043.91;118426;1149;104863;-71
2021/01/09 01:53:00;;;;;;;614.33;180.43;;;;;;;2.04;65.45;100050.01;118504;1150;104655;-70
2021/01/09 01:55:27;;;;;;;611.83;178.90;;;;;;;1.98;65.07;100046.00;118451;1150;104648;-70
2021/01/09 01:57:52;;;;;;;617.70;182.25;;;;;;;1.89;64.54;100052.73;118457;1149;104617;-71
2021/01/09 02:00:24;;;;;;;603.15;173.95;;;;;;;1.90;64.76;100043.87;118505;1150;104484;-69
2021/01/09 02:03:00;;;;;;;624.05;185.70;;;;;;;1.96;65.81;100043.50;118433;1150;104587;-70
2021/01/09 02:05:33;;;;;;;605.65;172.35;;;;;;;2.00;64.42;100043.27;118460;1151;104572;-70
2021/01/09 02:08:02;;;;;;;627.23;191.18;;;;;;;2.02;65.93;100036.98;118400;1149;104586;-71
2021/01/09 02:10:28;;;;;;;624.48;191.90;;;;;;;2.05;65.22;100049.91;118436;1150;104575;-69
2021/01/09 02:13:02;;;;;;;624.48;188.00;;;;;;;2.06;65.07;100042.84;118453;1149;104644;-71
2021/01/09 02:15:30;;;;;;;628.87;192.20;;;;;;;2.09;65.24;100037.39;118462;1150;104761;-70
2021/01/09 02:17:57;;;;;;;623.07;188.50;;;;;;;2.11;64.79;100036.33;118450;1150;104646;-70
2021/01/09 02:20:26;;;;;;;616.87;182.57;;;;;;;2.15;65.04;100036.97;118411;1149;104652;-70
2021/01/09 02:22:54;;;;;;;614.00;181.37;;;;;;;2.18;65.76;100042.03;118399;1151;104646;-70
2021/01/09 02:25:20;;;;;;;614.13;180.97;;;;;;;2.19;64.82;100033.17;118491;1150;104483;-70
2021/01/09 02:27:45;;;;;;;609.92;177.70;;;;;;;2.15;65.86;100039.59;118424;1149;104854;-70
2021/01/09 02:30:12;;;;;;;612.45;179.50;;;;;;;2.14;64.58;100033.50;118510;1150;104637;-70
2021/01/09 02:32:43;;;;;;;612.93;177.47;;;;;;;2.12;64.46;100038.03;118455;1149;104479;-70
2021/01/09 02:35:11;;;;;;;614.00;179.00;;;;;;;2.11;64.72;100040.76;118387;1150;104631;-71
2021/01/09 02:37:37;;;;;;;608.57;176.83;;;;;;;2.10;65.39;100039.09;118503;1150;104557;-70
2021/01/09 02:40:04;;;;;;;613.92;180.27;;;;;;;2.10;65.48;100037.29;118504;1150;104946;-69
2021/01/09 02:42:31;;;;;;;618.23;175.50;;;;;;;2.11;65.09;100040.76;118448;1150;104578;-68
2021/01/09 02:44:57;;;;;;;614.50;181.00;;;;;;;2.14;64.83;100037.93;118507;1150;104648;-69
2021/01/09 02:47:23;;;;;;;;;;;;;;;2.14;65.50;100038.77;118415;1150;104738;-71
2021/01/09 02:49:48;;;;;;;607.47;177.73;;;;;;;2.19;64.68;100045.50;118453;1150;104595;-69
2021/01/09 02:52:14;;;;;;;569.85;136.55;;;;;;;2.17;64.44;100048.23;118479;1150;104579;-71
2021/01/09 02:54:39;;;;;;;602.90;170.90;;;;;;;2.16;64.38;100046.56;118432;1150;104865;-70
2021/01/09 02:57:05;;;;;;;567.95;139.20;;;;;;;2.15;64.77;100044.86;118465;1149;104739;-72
2021/01/09 02:59:30;;;;;;;632.00;190.73;;;;;;;2.15;65.95;100047.50;118406;1150;105055;-69
2021/01/09 03:01:56;;;;;;;575.90;153.73;;;;;;;2.12;65.48;100047.72;118399;1149;104505;-70
2021/01/09 03:04:22;;;;;;;599.13;171.40;;;;;;;2.09;65.12;100042.66;118519;1150;104636;-70
2021/01/09 03:06:47;;;;;;;579.38;151.53;;;;;;;2.07;65.64;100048.02;118548;1150;104531;-69
2021/01/09 03:09:13;;;;;;;595.67;163.90;;;;;;;2.08;65.42;100044.45;118501;1149;104477;-69
2021/01/09 03:11:38;;;;;;;581.03;156.63;;;;;;;2.05;65.85;100042.02;118427;1150;104585;-69
2021/01/09 03:14:05;;;;;;;605.87;175.38;;;;;;;2.05;65.24;100039.38;118451;1150;104557;-70
2021/01/09 03:16:30;;;;;;;599.03;176.63;;;;;;;2.07;65.47;100034.02;118587;1150;104514;-71
2021/01/09 03:18:56;;;;;;;605.10;176.60;;;;;;;2.08;65.11;100033.06;118433;1150;104519;-70
2021/01/09 03:21:22;;;;;;;606.50;174.80;;;;;;;2.03;65.44;100038.64;118452;1150;104503;-72
2021/01/09 03:23:47;;;;;;;613.70;180.60;;;;;;;2.02;66.15;100036.98;118491;1150;104649;-70
2021/01/09 03:26:13;;;;;;;610.40;180.10;;;;;;;2.05;65.90;100033.28;118395;1149;104495;-70
2021/01/09 03:28:39;;;;;;;615.07;181.70;;;;;;;2.08;66.20;100040.95;118420;1150;104574;-71
2021/01/09 03:31:04;;;;;;;611.63;181.27;;;;;;;2.10;65.26;100033.83;118647;1149;104552;-72
2021/01/09 03:33:30;;;;;;;;;;;;;;;2.09;65.74;100032.12;118577;1150;104568;-72
2021/01/09 03:35:55;;;;;;;;;;;;;;;2.10;66.32;100039.09;118530;1150;105158;-71
2021/01/09 03:38:21;;;;;;;;;;;;;;;2.10;65.63;100044.36;118475;1149;104953;-71
2021/01/09 03:40:47;;;;;;;599.80;172.90;;;;;;;2.10;65.29;100045.19;118455;1149;104486;-71
2021/01/09 03:43:13;;;;;;;620.60;176.23;;;;;;;2.13;65.78;100044.13;118548;1149;104757;-72
2021/01/09 03:45:38;;;;;;;641.20;192.80;;;;;;;2.13;65.94;100049.39;118310;1149;104505;-72
2021/01/09 03:48:04;;;;;;;589.67;155.18;;;;;;;2.10;65.62;100045.19;118593;1150;104738;-71
2021/01/09 03:50:30;;;;;;;655.15;206.95;;;;;;;2.07;66.17;100047.18;118492;1150;104460;-71
2021/01/09 03:52:56;;;;;;;645.43;183.97;;;;;;;2.06;65.83;100033.19;118529;1150;104633;-72
2021/01/09 03:55:21;;;;;;;793.63;265.80;;;;;;;2.08;66.06;100046.22;118618;1150;104586;-72
2021/01/09 03:57:47;;;;;;;705.20;209.00;;;;;;;2.07;65.63;100049.81;118536;1149;104505;-72
2021/01/09 04:00:13;;;;;;;657.12;207.95;;;;;;;2.03;66.61;100053.60;118607;1150;104506;-72
2021/01/09 04:02:40;;;;;;;626.23;161.13;;;;;;;2.00;65.59;100043.27;118509;1150;104637;-72
2021/01/09 04:05:08;;;;;;;681.47;211.87;;;;;;;2.01;65.79;100050.23;118549;1149;104692;-72
2021/01/09 04:07:33;;;;;;;593.42;151.70;;;;;;;2.04;66.29;100050.87;118584;1150;104489;-71
2021/01/09 04:09:59;;;;;;;631.80;184.60;;;;;;;2.06;65.56;100050.75;118569;1149;104641;-71
2021/01/09 04:12:25;;;;;;;735.97;210.07;;;;;;;2.07;65.83;100055.91;118536;1149;104901;-71
2021/01/09 04:14:50;;;;;;;630.47;191.47;;;;;;;2.14;66.12;100058.98;118479;1150;105059;-72
2021/01/09 04:17:16;;;;;;;615.20;175.65;;;;;;;2.18;66.02;100060.46;118597;1150;104604;-71
2021/01/09 04:19:42;;;;;;;624.80;187.63;;;;;;;2.21;66.67;100057.59;118519;1150;104508;-71
2021/01/09 04:22:07;;;;;;;884.53;295.37;;;;;;;2.24;66.05;100062.67;118637;1149;104560;-72
2021/01/09 04:24:33;;;;;;;691.27;233.40;;;;;;;2.23;65.81;100063.60;118534;1150;104649;-71
2021/01/09 04:26:59;;;;;;;;;;;;;;;2.26;66.19;100066.03;118549;1150;104956;-73
2021/01/09 04:29:25;;;;;;;604.50;168.70;;;;;;;2.27;66.13;100064.23;118617;1149;104809;-71
2021/01/09 04:31:52;;;;;;;601.90;167.60;;;;;;;2.32;66.32;100068.25;118545;1150;104800;-71
2021/01/09 04:34:18;;;;;;;;;;;;;;;2.34;66.35;100071.61;118538;1150;104460;-72
2021/01/09 04:36:44;;;;;;;;;;;;;;;2.38;66.41;100074.89;118569;1150;105024;-72
2021/01/09 04:39:11;;;;;;;566.95;136.80;;;;;;;2.40;65.69;100074.78;118589;1150;104643;-71
2021/01/09 04:41:37;;;;;;;843.90;253.30;;;;;;;2.39;66.49;100073.09;118500;1150;104905;-71
2021/01/09 04:44:05;;;;;;;756.25;220.63;;;;;;;2.38;66.67;100069.62;118542;1150;104588;-71
2021/01/09 04:46:38;;;;;;;;;;;;;;;2.39;67.06;100070.45;118615;1149;104636;-71
2021/01/09 04:49:04;;;;;;;607.02;172.78;;;;;;;2.41;66.22;100074.69;118529;1149;104903;-71
2021/01/09 04:51:31;;;;;;;568.10;137.43;;;;;;;2.44;66.19;100070.99;118569;1149;104464;-71
2021/01/09 04:53:58;;;;;;;;;;;;;;;2.44;65.98;100074.45;118578;1150;104636;-71
2021/01/09 04:56:23;;;;;;;;;;;;;;;2.46;67.16;100074.36;118571;1148;105110;-72
2021/01/09 04:58:49;;;;;;;;;;;;;;;2.48;66.63;100075.09;118490;1150;105090;-72
2021/01/09 05:01:16;;;;;;;;;;;;;;;2.48;66.31;100086.49;118540;1150;104463;-72
2021/01/09 05:03:41;;;;;;;;;;;;;;;2.43;66.24;100083.33;118599;1149;105090;-72
2021/01/09 05:06:07;;;;;;;;;;;;;;;2.45;66.02;100086.69;118496;1149;104504;-72
2021/01/09 05:08:32;;;;;;;578.75;152.57;;;;;;;2.44;66.26;100079.72;118490;1150;105373;-74
2021/01/09 05:10:58;;;;;;;592.58;172.40;;;;;;;2.40;65.53;100087.95;118580;1150;104581;-72
2021/01/09 05:13:23;;;;;;;598.23;175.50;;;;;;;2.39;66.85;100097.66;118485;1150;104713;-72
2021/01/09 05:15:49;;;;;;;589.10;169.63;;;;;;;2.38;67.14;100089.85;118598;1150;104963;-70
2021/01/09 05:18:17;;;;;;;605.90;188.30;;;;;;;2.37;66.21;100102.18;118474;1150;104503;-72
2021/01/09 05:20:43;;;;;;;549.73;134.83;;;;;;;2.31;66.58;100100.80;118497;1149;104483;-72
2021/01/09 05:23:10;;;;;;;581.70;161.00;;;;;;;2.29;66.53;100107.09;118607;1150;104516;-70
2021/01/09 05:25:37;;;;;;;593.30;174.93;;;;;;;2.27;67.45;100099.33;118440;1150;104953;-70
2021/01/09 05:28:04;;;;;;;684.27;222.17;;;;;;;2.29;67.28;100105.33;118486;1150;104691;-69
2021/01/09 05:30:31;;;;;;;741.83;261.53;;;;;;;2.29;65.93;100113.23;118480;1150;104770;-70
2021/01/09 05:33:00;;;;;;;804.40;261.85;;;;;;;2.28;67.64;100111.53;118476;1150;104467;-71
2021/01/09 05:35:29;;;;;;;650.30;203.85;;;;;;;2.26;65.87;100107.33;118562;1150;104645;-71
2021/01/09 05:37:54;;;;;;;722.07;250.70;;;;;;;2.28;66.94;100115.96;118474;1149;104780;-72
2021/01/09 05:40:20;;;;;;;870.77;315.80;;;;;;;2.31;66.03;100110.47;118539;1149;104729;-71
2021/01/09 05:42:45;;;;;;;798.85;290.92;;;;;;;2.34;67.59;100105.01;118606;1150;104546;-72
2021/01/09 05:45:12;;;;;;;1364.70;528.27;;;;;;;2.32;67.57;100112.17;118379;1149;104818;-71
2021/01/09 05:47:39;;;;;;;922.80;346.67;;;;;;;2.29;67.62;100104.47;118524;1150;104997;-71
2021/01/09 05:50:07;;;;;;;802.73;301.73;;;;;;;2.33;67.70;100104.17;118566;1149;104665;-71
2021/01/09 05:52:40;;;;;;;758.63;283.87;;;;;;;2.34;66.92;100107.64;118519;1150;104566;-71
2021/01/09 05:55:07;;;;;;;637.85;213.87;;;;;;;2.41;66.07;100108.92;118567;1149;104574;-71
2021/01/09 05:57:34;;;;;;;557.37;141.37;;;;;;;2.45;67.02;100117.45;118516;1150;104580;-71
2021/01/09 06:00:06;;;;;;;593.47;171.37;;;;;;;2.50;66.42;100117.97;118615;1149;104647;-71
2021/01/09 06:02:54;;;;;;;603.90;183.17;;;;;;;2.53;66.05;100120.41;118529;1149;104621;-71
2021/01/09 06:05:22;;;;;;;594.45;175.75;;;;;;;2.59;67.31;100116.51;118509;1150;104540;-71
2021/01/09 06:07:51;;;;;;;594.73;178.77;;;;;;;2.56;66.65;100117.57;118528;1150;104511;-71
2021/01/09 06:10:20;;;;;;;633.57;199.87;;;;;;;2.52;67.48;100123.97;118488;1150;104470;-71
2021/01/09 06:13:00;;;;;;;749.70;213.00;;;;;;;2.45;67.18;100122.72;118541;1149;104567;-71
2021/01/09 06:15:30;;;;;;;673.70;213.67;;;;;;;2.42;67.39;100128.19;118529;1150;104588;-71
2021/01/09 06:17:59;;;;;;;711.35;234.87;;;;;;;2.40;66.98;100122.19;118540;1150;104489;-71
2021/01/09 06:20:26;;;;;;;820.67;277.93;;;;;;;2.37;66.97;100125.88;118533;1149;104515;-71
2021/01/09 06:22:54;;;;;;;1139.13;425.00;;;;;;;2.39;67.86;100133.65;118559;1150;104692;-71
2021/01/09 06:25:21;;;;;;;1100.43;389.50;;;;;;;2.39;66.50;100138.91;118571;1151;104503;-72
2021/01/09 06:27:50;;;;;;;864.10;313.30;;;;;;;2.40;67.30;100138.81;118532;1150;104700;-71
2021/01/09 06:30:20;;;;;;;687.35;227.40;;;;;;;2.42;67.96;100141.35;118510;1149;104637;-71
2021/01/09 06:32:56;;;;;;;671.08;220.80;;;;;;;2.45;67.28;100143.80;118547;1150;104548;-71
2021/01/09 06:35:22;;;;;;;777.27;265.67;;;;;;;2.47;67.80;100147.16;118556;1151;104559;-71
2021/01/09 06:37:47;;;;;;;657.37;186.97;;;;;;;2.51;66.52;100148.64;118519;1149;104724;-70
2021/01/09 06:40:16;;;;;;;605.73;187.27;;;;;;;2.54;66.81;100156.31;118498;1150;104626;-71
2021/01/09 06:42:43;;;;;;;591.60;174.57;;;;;;;2.55;66.50;100155.37;118430;1150;104556;-70
2021/01/09 06:45:10;;;;;;;608.90;188.90;;;;;;;2.55;67.26;100150.11;118259;1149;104642;-71
2021/01/09 06:47:36;;;;;;;666.03;214.40;;;;;;;2.51;66.92;100162.64;118551;1150;104655;-69
2021/01/09 06:50:17;;;;;;;630.80;174.60;;;;;;;2.50;67.42;100162.74;118499;1150;104473;-70
2021/01/09 06:52:55;;;;;;;655.17;203.50;;;;;;;2.52;68.33;100163.48;118418;1150;104603;-72
2021/01/09 06:55:35;;;;;;;1002.67;366.37;;;;;;;2.53;66.61;100173.92;118390;1150;104594;-70
2021/01/09 06:58:02;;;;;;;630.33;207.57;;;;;;;2.54;67.14;100174.75;118401;1150;104601;-70
2021/01/09 07:00:28;;;;;;;602.50;180.20;;;;;;;2.56;68.44;100172.89;118464;1150;104581;-71
2021/01/09 07:03:14;;;;;;;591.02;162.50;;;;;;;2.61;67.18;100169.93;118479;1150;104646;-74
2021/01/09 07:05:46;;;;;;;658.75;210.20;;;;;;;2.60;66.78;100171.73;118572;1150;104495;-72
2021/01/09 07:08:21;;;;;;;625.83;191.90;;;;;;;2.60;67.18;100176.13;118522;1150;104625;-71
2021/01/09 07:10:50;;;;;;;615.15;187.75;;;;;;;2.62;66.80;100176.87;118560;1150;104773;-71
2021/01/09 07:13:17;;;;;;;606.35;183.18;;;;;;;2.66;67.63;100175.73;118579;1150;104505;-70
2021/01/09 07:15:42;;;;;;;569.35;144.80;;;;;;;2.72;66.98;100175.31;118561;1150;105078;-72
2021/01/09 07:18:08;;;;;;;590.23;154.90;;;;;;;2.72;67.54;100176.15;118624;1150;104569;-72
2021/01/09 07:20:37;;;;;;;660.37;213.40;;;;;;;2.70;67.37;100185.95;118444;1149;104479;-72
2021/01/09 07:23:06;;;;;;;698.97;223.50;;;;;;;2.70;68.21;100175.41;118509;1150;104736;-73
2021/01/09 07:25:39;;;;;;;728.47;249.93;;;;;;;2.73;67.24;100180.48;118595;1150;104484;-71
2021/01/09 07:28:17;;;;;;;763.40;257.60;;;;;;;2.70;68.46;100169.31;118497;1149;104526;-71
2021/01/09 07:30:44;;;;;;;692.95;195.22;;;;;;;2.63;68.54;100176.77;118581;1150;104557;-70
2021/01/09 07:33:12;;;;;;;642.77;197.05;;;;;;;2.66;68.01;100173.94;118477;1150;104481;-71
2021/01/09 07:35:40;;;;;;;812.50;270.80;;;;;;;2.68;67.95;100179.94;118533;1150;104701;-70
2021/01/09 07:38:07;;;;;;;669.95;214.48;;;;;;;2.74;67.33;100186.59;118485;1150;104516;-69
2021/01/09 07:40:45;;;;;;;659.40;204.13;;;;;;;2.78;67.86;100176.69;118413;1150;104960;-70
2021/01/09 07:43:36;;;;;;;616.83;157.27;;;;;;;2.81;68.26;100189.63;118488;1150;104654;-73
2021/01/09 07:46:27;;;;;;;849.40;294.30;;;;;;;2.84;67.75;100178.89;118539;1150;104782;-70
2021/01/09 07:48:55;;;;;;;950.73;358.63;;;;;;;2.88;68.13;100190.91;118480;1150;104584;-73
2021/01/09 07:51:50;;;;;;;1179.30;498.80;;;;;;;2.91;67.00;100188.91;118549;1151;104527;-73
2021/01/09 07:54:27;;;;;;;704.97;257.50;;;;;;;2.97;68.41;100195.55;118586;1150;104567;-72
2021/01/09 07:56:53;;;;;;;793.10;271.23;;;;;;;2.94;67.83;100196.62;118544;1150;105196;-72
2021/01/09 07:59:19;;;;;;;785.48;281.73;;;;;;;2.95;67.74;100186.91;118543;1149;104460;-72
2021/01/09 08:01:45;;;;;;;743.05;266.50;;;;;;;2.97;67.88;100198.19;118575;1149;104592;-72
2021/01/09 08:04:11;;;;;;;712.43;254.43;;;;;;;3.03;67.68;100192.48;118520;1150;104612;-71
2021/01/09 08:06:41;;;;;;;670.83;229.33;;;;;;;3.08;67.77;100200.93;118561;1151;104659;-68
2021/01/09 08:09:09;;;;;;;643.63;191.43;;;;;;;3.09;68.04;100197.33;118449;1149;104546;-71
2021/01/09 08:11:46;;;;;;;694.23;208.20;;;;;;;3.07;68.50;100201.03;118399;1150;104668;-70
2021/01/09 08:14:13;;;;;;;775.58;277.52;;;;;;;3.09;68.57;100205.23;118432;1150;104489;-70
2021/01/09 08:16:39;;;;;;;801.58;287.93;;;;;;;3.11;68.25;100205.97;118410;1150;105130;-70
2021/01/09 08:19:18;;;;;;;728.20;251.02;;;;;;;3.14;68.55;100208.41;118451;1149;104633;-77
2021/01/09 08:21:52;;;;;;;994.73;349.92;;;;;;;3.15;67.52;100210.08;118523;1150;104588;-71
2021/01/09 08:24:25;;;;;;;952.52;298.15;;;;;;;3.13;67.58;100209.34;118429;1149;104489;-71
2021/01/09 08:26:55;;;;;;;895.60;312.95;;;;;;;3.17;67.62;100203.87;118551;1150;104588;-70
2021/01/09 08:29:26;;;;;;;1394.58;506.20;;;;;;;3.21;68.51;100206.17;118398;1150;104652;-69
2021/01/09 08:31:54;;;;;;;1968.90;653.25;;;;;;;3.22;68.45;100201.77;118407;1150;104564;-73
2021/01/09 08:34:22;;;;;;;1415.15;561.05;;;;;;;3.23;68.00;100206.07;118552;1150;104663;-71
2021/01/09 08:36:57;;;;;;;753.33;254.47;;;;;;;3.22;68.12;100210.52;118562;1150;104501;-72
2021/01/09 08:39:23;;;;;;;671.00;189.50;;;;;;;3.18;67.34;100216.95;118552;1150;104573;-71
2021/01/09 08:41:51;;;;;;;846.97;302.50;;;;;;;3.13;67.76;100209.34;118595;1149;105038;-72
2021/01/09 08:44:17;;;;;;;813.83;304.37;;;;;;;3.12;67.49;100212.95;118559;1150;104631;-72
2021/01/09 08:46:44;;;;;;;714.50;253.03;;;;;;;3.14;68.51;100213.68;118551;1149;104509;-71
2021/01/09 08:49:25;;;;;;;646.23;220.33;;;;;;;3.20;67.84;100220.33;118681;1150;104627;-71
2021/01/09 08:51:57;;;;;;;917.17;313.17;;;;;;;3.22;67.40;100217.59;118493;1150;104668;-71
2021/01/09 08:54:28;;;;;;;959.60;410.43;;;;;;;3.26;67.51;100224.33;118527;1150;104462;-74
2021/01/09 08:56:55;;;;;;;918.90;355.83;;;;;;;3.31;68.31;100230.11;118702;1150;104972;-71
2021/01/09 08:59:21;;;;;;;783.35;308.05;;;;;;;3.34;67.88;100222.83;118558;1151;104725;-72
2021/01/09 09:01:49;;;;;;;649.73;234.27;;;;;;;3.31;67.39;100224.83;118645;1150;104934;-71
2021/01/09 09:04:20;;;;;;;613.83;189.05;;;;;;;3.26;67.82;100230.44;118690;1150;104741;-73
2021/01/09 09:06:53;;;;;;;713.10;250.45;;;;;;;3.28;68.38;100228.53;118616;1149;104637;-70
2021/01/09 09:09:19;;;;;;;657.43;239.57;;;;;;;3.27;67.62;100228.63;118418;1150;104637;-70
2021/01/09 09:11:52;;;;;;;642.33;223.93;;;;;;;3.27;68.35;100236.55;118377;1149;104641;-72
2021/01/09 09:14:19;;;;;;;611.65;200.00;;;;;;;3.28;67.47;100227.70;118501;1150;104655;-70
2021/01/09 09:16:45;;;;;;;615.38;207.87;;;;;;;3.30;68.17;100236.34;118474;1151;104519;-73
2021/01/09 09:19:19;;;;;;;565.25;147.80;;;;;;;3.26;68.27;100234.88;118423;1149;104567;-73
2021/01/09 09:21:47;;;;;;;641.35;232.35;;;;;;;3.22;67.60;100236.05;118352;1150;104626;-71
2021/01/09 09:24:16;;;;;;;629.10;217.23;;;;;;;3.23;68.41;100229.80;118514;1149;104630;-72
2021/01/09 09:26:43;;;;;;;615.35;205.32;;;;;;;3.22;67.80;100231.61;118473;1149;104617;-71
2021/01/09 09:29:16;;;;;;;613.80;203.87;;;;;;;3.21;67.57;100227.27;118336;1150;104591;-71
2021/01/09 09:31:45;;;;;;;566.97;147.47;;;;;;;3.21;68.54;100235.17;118320;1150;104505;-70
2021/01/09 09:34:21;;;;;;;615.55;204.55;;;;;;;3.22;68.47;100233.41;118310;1150;104572;-73
2021/01/09 09:36:49;;;;;;;617.07;206.67;;;;;;;3.15;68.18;100228.53;118359;1150;104652;-73
2021/01/09 09:39:25;;;;;;;617.97;204.70;;;;;;;3.09;67.44;100228.13;118323;1151;104647;-71
2021/01/09 09:41:58;;;;;;;664.92;238.22;;;;;;;3.06;68.57;100234.47;118366;1149;104697;-70
2021/01/09 09:44:39;;;;;;;607.30;174.35;;;;;;;3.07;68.04;100232.66;118440;1150;104775;-70
2021/01/09 09:47:24;;;;;;;633.03;212.80;;;;;;;3.09;67.38;100228.96;118409;1150;104467;-70
2021/01/09 09:49:49;;;;;;;630.10;212.20;;;;;;;3.09;67.91;100228.96;118388;1150;104582;-70
2021/01/09 09:52:16;;;;;;;626.77;210.95;;;;;;;3.15;68.84;100223.26;118406;1149;104611;-70
2021/01/09 09:54:41;;;;;;;596.20;181.03;;;;;;;3.12;68.00;100226.13;118441;1149;104587;-72
2021/01/09 09:57:18;;;;;;;582.97;152.67;;;;;;;3.06;67.46;100220.42;118423;1150;104585;-70
2021/01/09 09:59:44;;;;;;;611.20;195.37;;;;;;;3.04;67.41;100215.28;118362;1150;104551;-70
2021/01/09 10:02:09;;;;;;;631.70;212.57;;;;;;;3.00;69.31;100229.59;118400;1150;104609;-72
2021/01/09 10:04:43;;;;;;;628.77;206.83;;;;;;;3.01;69.28;100223.38;118622;1150;104868;-69
2021/01/09 10:07:20;;;;;;;587.98;166.88;;;;;;;2.98;67.88;100217.47;118414;1150;104576;-72
2021/01/09 10:09:46;;;;;;;572.07;146.87;;;;;;;2.94;69.25;100225.61;118462;1150;104563;-71
2021/01/09 10:12:12;;;;;;;616.80;198.57;;;;;;;2.95;68.37;100226.45;118450;1150;104643;-73
2021/01/09 10:14:38;;;;;;;639.87;213.80;;;;;;;2.93;68.16;100223.08;118614;1150;104675;-69
2021/01/09 10:17:03;;;;;;;630.05;206.20;;;;;;;2.94;68.62;100230.02;118349;1150;105132;-70
2021/01/09 10:19:29;;;;;;;561.53;140.13;;;;;;;2.92;69.08;100224.01;118415;1150;104633;-73
2021/01/09 10:21:54;;;;;;;578.50;152.80;;;;;;;2.90;68.31;100231.17;118471;1150;104585;-72
2021/01/09 10:24:20;;;;;;;619.60;196.30;;;;;;;2.87;69.00;100226.13;118403;1150;104626;-69
2021/01/09 10:26:46;;;;;;;630.27;207.23;;;;;;;2.87;69.51;100226.13;118449;1150;104548;-70
2021/01/09 10:29:11;;;;;;;620.17;199.38;;;;;;;2.84;69.26;100223.70;118431;1150;104615;-73
2021/01/09 10:31:39;;;;;;;585.50;153.15;;;;;;;2.80;68.79;100227.48;118511;1150;104502;-71
2021/01/09 10:34:07;;;;;;;621.63;192.07;;;;;;;2.75;69.18;100228.65;118536;1150;104559;-72
2021/01/09 10:36:38;;;;;;;620.30;193.07;;;;;;;2.78;68.58;100237.30;118659;1150;104891;-71
2021/01/09 10:39:06;;;;;;;620.73;194.20;;;;;;;2.81;68.08;100230.03;118581;1150;104659;-72
2021/01/09 10:41:32;;;;;;;611.87;190.37;;;;;;;2.82;69.53;100238.77;118540;1150;104482;-71
2021/01/09 10:43:58;;;;;;;574.47;145.10;;;;;;;2.81;68.89;100234.43;118364;1149;104490;-70
2021/01/09 10:46:26;;;;;;;711.17;233.85;;;;;;;2.81;67.90;100235.30;118455;1150;104512;-71
2021/01/09 10:48:52;;;;;;;701.70;232.23;;;;;;;2.80;68.75;100233.59;118482;1150;104631;-71
2021/01/09 10:51:20;;;;;;;618.90;194.50;;;;;;;2.77;69.69;100232.95;118398;1150;104659;-71
2021/01/09 10:53:47;;;;;;;651.53;214.30;;;;;;;2.81;69.42;100237.94;118601;1150;104665;-74
2021/01/09 10:56:13;;;;;;;584.93;149.03;;;;;;;2.77;69.15;100232.95;118566;1150;104539;-76
2021/01/09 10:58:39;;;;;;;644.45;204.97;;;;;;;2.73;68.82;100233.18;118582;1149;104640;-75
2021/01/09 11:01:05;;;;;;;761.77;271.97;;;;;;;2.75;69.36;100236.55;118592;1150;104547;-75
2021/01/09 11:03:32;;;;;;;641.98;209.05;;;;;;;2.78;69.61;100232.86;118541;1149;104463;-73
2021/01/09 11:05:58;;;;;;;631.63;203.50;;;;;;;2.81;69.65;100240.56;118498;1149;104551;-74
2021/01/09 11:08:24;;;;;;;783.87;246.25;;;;;;;2.81;69.70;100234.43;118652;1149;104582;-74